Terminal Aerodrome Forecast
Issued by NWS Tuscon, AZ

Home | Current Version | Previous Version | Text Only | Print | Product List | Glossary On
Versions: 1 2 3 4 5 6 7 8 9 10 11 12
000
FTUS45 KTWC 201732
TAFTUS
TAF
KTUS 201732Z 2018/2118 21006KT P6SM FEW250
     FM201900 22014KT P6SM SCT250
     FM202100 25015G23KT P6SM SCT250
     FM210200 23007KT P6SM SCT250
     FM211000 14007KT P6SM SCT250=

USA.gov is the U.S. government's official web portal to all federal, state and local government web resources and services.